Accueil
METAR-TAF:

METAR-TAF

Aéroports :

Aéroport Agen-La Garenne

Agen, France

latitude: 44-11N, longitude: 000-36E, altitude: 61 m

Observation

Le bulletin a été fait il y a 17 minutes, à 08:00 UTC
Vent 7 kt de nord, variant entre nord-ouest et nord/nord-est
Température 8°C
Humidité 57%
Pression 1022 hPa
Visibilité 10 km ou plus
pas de nuages en-dessous de 1500 mètres et pas de cumulonimbus.

METAR: LFBA 170800Z AUTO 35007KT 310V030 CAVOK 08/M00 Q1022 NOSIG

Heure: 10:17 (08:17 UTC)

Prévision

Le bulletin a été fait il y a 3 heures et 17 minutes, à 05:00 UTC
Prévision valable du 17 à 06 UTC au 17 à 15 UTC
Vent 6 kt de ouest/nord-ouest
Visibilité 10 km ou plus
pas de nuages en-dessous de 1500 mètres et pas de cumulonimbus.
Evoluant progressivement
du 17 à 08 UTC au 17 à 10 UTC
Vent 10 kt de nord

TAF: LFBA 170500Z 1706/1715 29006KT CAVOK BECMG 1708/1710 36010KT

Observations et prévisions météorologiques de plus de 4000 aéroports (messages METAR et TAF).

Les stations disponibles sont représentées par des disques jaunes et rouges sur la carte.

Passer la souris dessus pour voir le nom de la station.

Cliquer dessus pour voir les observations et prévisions météorologiques.

Pour changer de carte: cliquez sur les boutons verts avec une croix noire pour zoomer, sur le bouton vert avec un tiret pour effectuer un zoom arrière, ou sur les flèches vertes pour les cartes adjacentes.


METAR-TAF: